sensor_id;sensor_type;location;lat;lon;timestamp;temperature;humidity
4002;DHT22;2015;48.670;9.060;2022-08-19T00:02:01;19.60;99.90
4002;DHT22;2015;48.670;9.060;2022-08-19T00:04:34;19.60;99.90
4002;DHT22;2015;48.670;9.060;2022-08-19T00:07:08;19.60;99.90
4002;DHT22;2015;48.670;9.060;2022-08-19T00:09:40;19.60;99.90
4002;DHT22;2015;48.670;9.060;2022-08-19T00:12:12;19.60;99.90
4002;DHT22;2015;48.670;9.060;2022-08-19T00:14:44;19.60;99.90
4002;DHT22;2015;48.670;9.060;2022-08-19T00:17:15;19.60;99.90
4002;DHT22;2015;48.670;9.060;2022-08-19T00:19:47;19.70;99.90
4002;DHT22;2015;48.670;9.060;2022-08-19T00:22:19;19.60;99.90
4002;DHT22;2015;48.670;9.060;2022-08-19T00:24:51;19.60;99.90
4002;DHT22;2015;48.670;9.060;2022-08-19T00:27:25;19.70;99.90
4002;DHT22;2015;48.670;9.060;2022-08-19T00:29:57;19.60;99.90
4002;DHT22;2015;48.670;9.060;2022-08-19T00:32:31;19.60;99.90
4002;DHT22;2015;48.670;9.060;2022-08-19T00:35:06;19.50;99.90
4002;DHT22;2015;48.670;9.060;2022-08-19T00:37:39;19.50;99.90
4002;DHT22;2015;48.670;9.060;2022-08-19T00:40:16;19.50;99.90
4002;DHT22;2015;48.670;9.060;2022-08-19T00:42:49;19.50;99.90
4002;DHT22;2015;48.670;9.060;2022-08-19T00:45:23;19.40;99.90
4002;DHT22;2015;48.670;9.060;2022-08-19T00:47:55;19.40;99.90
4002;DHT22;2015;48.670;9.060;2022-08-19T00:50:27;19.40;99.90
4002;DHT22;2015;48.670;9.060;2022-08-19T00:52:59;19.40;99.90
4002;DHT22;2015;48.670;9.060;2022-08-19T00:55:36;19.40;99.90
4002;DHT22;2015;48.670;9.060;2022-08-19T00:58:12;19.30;99.90
4002;DHT22;2015;48.670;9.060;2022-08-19T01:00:46;19.40;99.90
4002;DHT22;2015;48.670;9.060;2022-08-19T01:03:20;19.30;99.90
4002;DHT22;2015;48.670;9.060;2022-08-19T01:05:53;19.30;99.90
4002;DHT22;2015;48.670;9.060;2022-08-19T01:08:25;19.30;99.90
4002;DHT22;2015;48.670;9.060;2022-08-19T01:10:59;19.20;99.90
4002;DHT22;2015;48.670;9.060;2022-08-19T01:13:33;19.20;99.90
4002;DHT22;2015;48.670;9.060;2022-08-19T01:16:22;19.20;99.90
4002;DHT22;2015;48.670;9.060;2022-08-19T01:18:55;19.20;99.90
4002;DHT22;2015;48.670;9.060;2022-08-19T01:21:43;19.10;99.90
4002;DHT22;2015;48.670;9.060;2022-08-19T01:24:17;19.10;99.90
4002;DHT22;2015;48.670;9.060;2022-08-19T01:26:50;19.10;99.90
4002;DHT22;2015;48.670;9.060;2022-08-19T01:29:21;19.10;99.90
4002;DHT22;2015;48.670;9.060;2022-08-19T01:31:55;19.10;99.90
4002;DHT22;2015;48.670;9.060;2022-08-19T01:34:27;19.00;99.90
4002;DHT22;2015;48.670;9.060;2022-08-19T01:37:00;19.00;99.90
4002;DHT22;2015;48.670;9.060;2022-08-19T01:39:38;19.00;99.90
4002;DHT22;2015;48.670;9.060;2022-08-19T01:42:10;18.90;99.90
4002;DHT22;2015;48.670;9.060;2022-08-19T01:44:43;19.00;99.90
4002;DHT22;2015;48.670;9.060;2022-08-19T01:47:15;19.00;99.90
4002;DHT22;2015;48.670;9.060;2022-08-19T01:49:48;19.00;99.90
4002;DHT22;2015;48.670;9.060;2022-08-19T01:52:20;19.00;99.90
4002;DHT22;2015;48.670;9.060;2022-08-19T01:54:52;19.00;99.90
4002;DHT22;2015;48.670;9.060;2022-08-19T01:57:24;19.00;99.90
4002;DHT22;2015;48.670;9.060;2022-08-19T01:59:56;19.00;99.90
4002;DHT22;2015;48.670;9.060;2022-08-19T02:02:28;19.00;99.90
4002;DHT22;2015;48.670;9.060;2022-08-19T02:05:00;19.00;99.90
4002;DHT22;2015;48.670;9.060;2022-08-19T02:07:31;19.00;99.90
4002;DHT22;2015;48.670;9.060;2022-08-19T02:10:07;18.90;99.90
4002;DHT22;2015;48.670;9.060;2022-08-19T02:12:44;18.90;99.90
4002;DHT22;2015;48.670;9.060;2022-08-19T02:15:19;18.90;99.90
4002;DHT22;2015;48.670;9.060;2022-08-19T02:17:51;18.90;99.90
4002;DHT22;2015;48.670;9.060;2022-08-19T02:20:23;18.90;99.90
4002;DHT22;2015;48.670;9.060;2022-08-19T02:22:55;18.90;99.90
4002;DHT22;2015;48.670;9.060;2022-08-19T02:25:27;18.90;99.90
4002;DHT22;2015;48.670;9.060;2022-08-19T02:27:59;18.90;99.90
4002;DHT22;2015;48.670;9.060;2022-08-19T02:30:32;18.90;99.90
4002;DHT22;2015;48.670;9.060;2022-08-19T02:33:04;18.90;99.90
4002;DHT22;2015;48.670;9.060;2022-08-19T02:35:36;18.90;99.90
4002;DHT22;2015;48.670;9.060;2022-08-19T02:38:08;18.90;99.90
4002;DHT22;2015;48.670;9.060;2022-08-19T02:41:05;18.90;99.90
4002;DHT22;2015;48.670;9.060;2022-08-19T02:43:37;18.80;99.90
4002;DHT22;2015;48.670;9.060;2022-08-19T02:46:18;18.80;99.90
4002;DHT22;2015;48.670;9.060;2022-08-19T02:48:54;18.80;99.90
4002;DHT22;2015;48.670;9.060;2022-08-19T02:51:40;18.80;99.90
4002;DHT22;2015;48.670;9.060;2022-08-19T02:54:13;18.80;99.90
4002;DHT22;2015;48.670;9.060;2022-08-19T02:56:46;18.80;99.90
4002;DHT22;2015;48.670;9.060;2022-08-19T02:59:18;18.80;99.90
4002;DHT22;2015;48.670;9.060;2022-08-19T03:01:53;18.80;99.90
4002;DHT22;2015;48.670;9.060;2022-08-19T03:04:25;18.80;99.90
4002;DHT22;2015;48.670;9.060;2022-08-19T03:06:57;18.70;99.90
4002;DHT22;2015;48.670;9.060;2022-08-19T03:09:42;18.70;99.90
4002;DHT22;2015;48.670;9.060;2022-08-19T03:12:16;18.70;99.90
4002;DHT22;2015;48.670;9.060;2022-08-19T03:14:48;18.70;99.90
4002;DHT22;2015;48.670;9.060;2022-08-19T03:17:20;18.80;99.90
4002;DHT22;2015;48.670;9.060;2022-08-19T03:19:52;18.80;99.90
4002;DHT22;2015;48.670;9.060;2022-08-19T03:22:23;18.70;99.90
4002;DHT22;2015;48.670;9.060;2022-08-19T03:24:56;18.70;99.90
4002;DHT22;2015;48.670;9.060;2022-08-19T03:27:28;18.70;99.90
4002;DHT22;2015;48.670;9.060;2022-08-19T03:30:05;18.70;99.90
4002;DHT22;2015;48.670;9.060;2022-08-19T03:32:42;18.70;99.90
4002;DHT22;2015;48.670;9.060;2022-08-19T03:35:16;18.70;99.90
4002;DHT22;2015;48.670;9.060;2022-08-19T03:37:48;18.70;99.90
4002;DHT22;2015;48.670;9.060;2022-08-19T03:40:20;18.60;99.90
4002;DHT22;2015;48.670;9.060;2022-08-19T03:42:52;18.60;99.90
4002;DHT22;2015;48.670;9.060;2022-08-19T03:45:27;18.50;99.90
4002;DHT22;2015;48.670;9.060;2022-08-19T03:47:59;18.60;99.90
4002;DHT22;2015;48.670;9.060;2022-08-19T03:50:31;18.60;99.90
4002;DHT22;2015;48.670;9.060;2022-08-19T03:53:02;18.60;99.90
4002;DHT22;2015;48.670;9.060;2022-08-19T03:55:40;18.60;99.90
4002;DHT22;2015;48.670;9.060;2022-08-19T03:58:12;18.50;99.90
4002;DHT22;2015;48.670;9.060;2022-08-19T04:00:44;18.50;99.90
4002;DHT22;2015;48.670;9.060;2022-08-19T04:03:17;18.50;99.90
4002;DHT22;2015;48.670;9.060;2022-08-19T04:05:50;18.50;99.90
4002;DHT22;2015;48.670;9.060;2022-08-19T04:08:22;18.50;99.90
4002;DHT22;2015;48.670;9.060;2022-08-19T04:10:54;18.50;99.90
4002;DHT22;2015;48.670;9.060;2022-08-19T04:13:25;18.50;99.90
4002;DHT22;2015;48.670;9.060;2022-08-19T04:15:57;18.50;99.90
4002;DHT22;2015;48.670;9.060;2022-08-19T04:18:29;18.50;99.90
4002;DHT22;2015;48.670;9.060;2022-08-19T04:21:07;18.50;99.90
4002;DHT22;2015;48.670;9.060;2022-08-19T04:23:39;18.40;99.90
4002;DHT22;2015;48.670;9.060;2022-08-19T04:26:22;18.40;99.90
4002;DHT22;2015;48.670;9.060;2022-08-19T04:28:54;18.40;99.90
4002;DHT22;2015;48.670;9.060;2022-08-19T04:31:29;18.40;99.90
4002;DHT22;2015;48.670;9.060;2022-08-19T04:34:05;18.40;99.90
4002;DHT22;2015;48.670;9.060;2022-08-19T04:36:39;18.30;99.90
4002;DHT22;2015;48.670;9.060;2022-08-19T04:39:16;18.30;99.90
4002;DHT22;2015;48.670;9.060;2022-08-19T04:41:49;18.30;99.90
4002;DHT22;2015;48.670;9.060;2022-08-19T04:44:39;18.40;99.90
4002;DHT22;2015;48.670;9.060;2022-08-19T04:47:17;18.40;99.90
4002;DHT22;2015;48.670;9.060;2022-08-19T04:50:09;18.40;99.90
4002;DHT22;2015;48.670;9.060;2022-08-19T04:52:43;18.30;99.90
4002;DHT22;2015;48.670;9.060;2022-08-19T04:55:15;18.40;99.90
4002;DHT22;2015;48.670;9.060;2022-08-19T04:57:46;18.40;99.90
4002;DHT22;2015;48.670;9.060;2022-08-19T05:00:19;18.40;99.90
4002;DHT22;2015;48.670;9.060;2022-08-19T05:02:50;18.40;99.90
4002;DHT22;2015;48.670;9.060;2022-08-19T05:05:22;18.40;99.90
4002;DHT22;2015;48.670;9.060;2022-08-19T05:07:54;18.40;99.90
4002;DHT22;2015;48.670;9.060;2022-08-19T05:10:27;18.50;99.90
4002;DHT22;2015;48.670;9.060;2022-08-19T05:12:59;18.50;99.90
4002;DHT22;2015;48.670;9.060;2022-08-19T05:15:31;18.50;99.90
4002;DHT22;2015;48.670;9.060;2022-08-19T05:18:03;18.50;99.90
4002;DHT22;2015;48.670;9.060;2022-08-19T05:21:06;18.50;99.90
4002;DHT22;2015;48.670;9.060;2022-08-19T05:23:57;18.50;99.90
4002;DHT22;2015;48.670;9.060;2022-08-19T05:26:29;18.50;99.90
4002;DHT22;2015;48.670;9.060;2022-08-19T05:29:01;18.50;99.90
4002;DHT22;2015;48.670;9.060;2022-08-19T05:31:34;18.50;99.90
4002;DHT22;2015;48.670;9.060;2022-08-19T05:34:12;18.50;99.90
4002;DHT22;2015;48.670;9.060;2022-08-19T05:36:53;18.50;99.90
4002;DHT22;2015;48.670;9.060;2022-08-19T05:39:30;18.50;99.90
4002;DHT22;2015;48.670;9.060;2022-08-19T05:42:11;18.50;99.90
4002;DHT22;2015;48.670;9.060;2022-08-19T05:44:43;18.50;99.90
4002;DHT22;2015;48.670;9.060;2022-08-19T05:47:16;18.50;99.90
4002;DHT22;2015;48.670;9.060;2022-08-19T05:49:50;18.50;99.90
4002;DHT22;2015;48.670;9.060;2022-08-19T05:52:22;18.60;99.90
4002;DHT22;2015;48.670;9.060;2022-08-19T05:54:56;18.60;99.90
4002;DHT22;2015;48.670;9.060;2022-08-19T05:57:28;18.60;99.90
4002;DHT22;2015;48.670;9.060;2022-08-19T06:00:01;18.50;99.90
4002;DHT22;2015;48.670;9.060;2022-08-19T06:02:36;18.60;99.90
4002;DHT22;2015;48.670;9.060;2022-08-19T06:05:09;18.70;99.90
4002;DHT22;2015;48.670;9.060;2022-08-19T06:07:40;18.60;99.90
4002;DHT22;2015;48.670;9.060;2022-08-19T06:10:13;18.60;99.90
4002;DHT22;2015;48.670;9.060;2022-08-19T06:12:44;18.60;99.90
4002;DHT22;2015;48.670;9.060;2022-08-19T06:15:16;18.60;99.90
4002;DHT22;2015;48.670;9.060;2022-08-19T06:17:48;18.60;99.90
4002;DHT22;2015;48.670;9.060;2022-08-19T06:20:20;18.70;99.90
4002;DHT22;2015;48.670;9.060;2022-08-19T06:23:12;18.70;99.90
4002;DHT22;2015;48.670;9.060;2022-08-19T06:25:48;18.70;99.90
4002;DHT22;2015;48.670;9.060;2022-08-19T06:28:19;18.70;99.90
4002;DHT22;2015;48.670;9.060;2022-08-19T06:30:52;18.80;99.90
4002;DHT22;2015;48.670;9.060;2022-08-19T06:33:24;18.80;99.90
4002;DHT22;2015;48.670;9.060;2022-08-19T06:35:56;18.70;99.90
4002;DHT22;2015;48.670;9.060;2022-08-19T06:38:28;18.70;99.90
4002;DHT22;2015;48.670;9.060;2022-08-19T06:41:02;18.80;99.90
4002;DHT22;2015;48.670;9.060;2022-08-19T06:43:38;18.70;99.90
4002;DHT22;2015;48.670;9.060;2022-08-19T06:46:15;18.80;99.90
4002;DHT22;2015;48.670;9.060;2022-08-19T06:48:48;18.80;99.90
4002;DHT22;2015;48.670;9.060;2022-08-19T06:51:21;18.80;99.90
4002;DHT22;2015;48.670;9.060;2022-08-19T06:53:55;18.90;99.90
4002;DHT22;2015;48.670;9.060;2022-08-19T06:56:29;18.90;99.90
4002;DHT22;2015;48.670;9.060;2022-08-19T06:59:09;18.90;99.90
4002;DHT22;2015;48.670;9.060;2022-08-19T07:01:45;19.00;99.90
4002;DHT22;2015;48.670;9.060;2022-08-19T07:04:25;19.00;99.90
4002;DHT22;2015;48.670;9.060;2022-08-19T07:07:03;19.00;99.90
4002;DHT22;2015;48.670;9.060;2022-08-19T07:09:51;19.00;99.90
4002;DHT22;2015;48.670;9.060;2022-08-19T07:12:32;19.00;99.90
4002;DHT22;2015;48.670;9.060;2022-08-19T07:15:09;19.00;99.90
4002;DHT22;2015;48.670;9.060;2022-08-19T07:17:41;19.10;99.90
4002;DHT22;2015;48.670;9.060;2022-08-19T07:20:15;19.00;99.90
4002;DHT22;2015;48.670;9.060;2022-08-19T07:22:49;19.00;99.90
4002;DHT22;2015;48.670;9.060;2022-08-19T07:25:21;19.00;99.90
4002;DHT22;2015;48.670;9.060;2022-08-19T07:28:03;19.10;99.90
4002;DHT22;2015;48.670;9.060;2022-08-19T07:30:38;19.10;99.90
4002;DHT22;2015;48.670;9.060;2022-08-19T07:33:14;19.10;99.90
4002;DHT22;2015;48.670;9.060;2022-08-19T07:35:46;19.10;99.90
4002;DHT22;2015;48.670;9.060;2022-08-19T07:38:19;19.10;99.90
4002;DHT22;2015;48.670;9.060;2022-08-19T07:40:51;19.10;99.90
4002;DHT22;2015;48.670;9.060;2022-08-19T07:43:23;19.10;99.90
4002;DHT22;2015;48.670;9.060;2022-08-19T07:46:06;19.10;99.90
4002;DHT22;2015;48.670;9.060;2022-08-19T07:48:44;19.10;99.90
4002;DHT22;2015;48.670;9.060;2022-08-19T07:51:20;19.10;99.90
4002;DHT22;2015;48.670;9.060;2022-08-19T07:54:07;19.00;99.90
4002;DHT22;2015;48.670;9.060;2022-08-19T07:56:39;19.00;99.90
4002;DHT22;2015;48.670;9.060;2022-08-19T07:59:11;19.00;99.90
4002;DHT22;2015;48.670;9.060;2022-08-19T08:01:44;19.00;99.90
4002;DHT22;2015;48.670;9.060;2022-08-19T08:04:17;19.10;99.90
4002;DHT22;2015;48.670;9.060;2022-08-19T08:07:08;19.10;99.90
4002;DHT22;2015;48.670;9.060;2022-08-19T08:10:04;19.10;99.90
4002;DHT22;2015;48.670;9.060;2022-08-19T08:12:44;19.10;99.90
4002;DHT22;2015;48.670;9.060;2022-08-19T08:15:38;19.10;99.90
4002;DHT22;2015;48.670;9.060;2022-08-19T08:18:14;19.10;99.90
4002;DHT22;2015;48.670;9.060;2022-08-19T08:20:46;19.10;99.90
4002;DHT22;2015;48.670;9.060;2022-08-19T08:23:18;19.10;99.90
4002;DHT22;2015;48.670;9.060;2022-08-19T08:25:58;19.00;99.90
4002;DHT22;2015;48.670;9.060;2022-08-19T08:28:30;19.10;99.90
4002;DHT22;2015;48.670;9.060;2022-08-19T08:31:02;19.10;99.90
4002;DHT22;2015;48.670;9.060;2022-08-19T08:33:40;19.20;99.90
4002;DHT22;2015;48.670;9.060;2022-08-19T08:36:13;19.20;99.90
4002;DHT22;2015;48.670;9.060;2022-08-19T08:38:45;19.20;99.90
4002;DHT22;2015;48.670;9.060;2022-08-19T08:44:03;19.30;99.90
4002;DHT22;2015;48.670;9.060;2022-08-19T08:46:39;19.40;99.90
4002;DHT22;2015;48.670;9.060;2022-08-19T08:54:44;19.10;99.90
4002;DHT22;2015;48.670;9.060;2022-08-19T09:00:23;19.00;99.90
4002;DHT22;2015;48.670;9.060;2022-08-19T09:02:58;19.00;99.90
4002;DHT22;2015;48.670;9.060;2022-08-19T09:06:07;19.00;99.90
4002;DHT22;2015;48.670;9.060;2022-08-19T09:14:45;19.10;99.90
4002;DHT22;2015;48.670;9.060;2022-08-19T09:17:30;19.30;99.90
4002;DHT22;2015;48.670;9.060;2022-08-19T09:20:23;19.40;99.90
4002;DHT22;2015;48.670;9.060;2022-08-19T09:22:57;19.40;99.90
4002;DHT22;2015;48.670;9.060;2022-08-19T09:25:30;19.50;99.90
4002;DHT22;2015;48.670;9.060;2022-08-19T09:28:03;19.50;99.90
4002;DHT22;2015;48.670;9.060;2022-08-19T09:30:51;19.50;99.90
4002;DHT22;2015;48.670;9.060;2022-08-19T09:33:23;19.50;99.90
4002;DHT22;2015;48.670;9.060;2022-08-19T09:36:07;19.50;99.90
4002;DHT22;2015;48.670;9.060;2022-08-19T09:38:40;19.50;99.90
4002;DHT22;2015;48.670;9.060;2022-08-19T09:41:20;19.50;99.90
4002;DHT22;2015;48.670;9.060;2022-08-19T09:43:55;19.50;99.90
4002;DHT22;2015;48.670;9.060;2022-08-19T09:46:28;19.60;99.90
4002;DHT22;2015;48.670;9.060;2022-08-19T09:49:00;19.60;99.90
4002;DHT22;2015;48.670;9.060;2022-08-19T09:51:37;19.50;99.90
4002;DHT22;2015;48.670;9.060;2022-08-19T09:54:10;19.50;99.90
4002;DHT22;2015;48.670;9.060;2022-08-19T09:56:42;19.50;99.90
4002;DHT22;2015;48.670;9.060;2022-08-19T09:59:14;19.50;99.90
4002;DHT22;2015;48.670;9.060;2022-08-19T10:01:47;19.50;99.90
4002;DHT22;2015;48.670;9.060;2022-08-19T10:04:20;19.50;99.90
4002;DHT22;2015;48.670;9.060;2022-08-19T10:07:15;19.50;99.90
4002;DHT22;2015;48.670;9.060;2022-08-19T10:09:47;19.50;99.90
4002;DHT22;2015;48.670;9.060;2022-08-19T10:12:18;19.50;99.90
4002;DHT22;2015;48.670;9.060;2022-08-19T10:14:50;19.60;99.90
4002;DHT22;2015;48.670;9.060;2022-08-19T10:17:24;19.70;99.90
4002;DHT22;2015;48.670;9.060;2022-08-19T10:20:02;19.80;99.90
4002;DHT22;2015;48.670;9.060;2022-08-19T10:22:35;19.80;99.90
4002;DHT22;2015;48.670;9.060;2022-08-19T10:25:09;19.80;99.90
4002;DHT22;2015;48.670;9.060;2022-08-19T10:27:41;19.90;99.90
4002;DHT22;2015;48.670;9.060;2022-08-19T10:30:19;19.90;99.90
4002;DHT22;2015;48.670;9.060;2022-08-19T10:32:51;19.90;99.90
4002;DHT22;2015;48.670;9.060;2022-08-19T10:35:23;20.00;99.90
4002;DHT22;2015;48.670;9.060;2022-08-19T10:37:57;20.00;99.90
4002;DHT22;2015;48.670;9.060;2022-08-19T10:40:34;20.10;99.90
4002;DHT22;2015;48.670;9.060;2022-08-19T10:43:06;20.20;99.90
4002;DHT22;2015;48.670;9.060;2022-08-19T10:45:38;20.20;99.90
4002;DHT22;2015;48.670;9.060;2022-08-19T10:48:23;20.20;99.90
4002;DHT22;2015;48.670;9.060;2022-08-19T10:50:57;20.30;99.90
4002;DHT22;2015;48.670;9.060;2022-08-19T10:53:54;20.40;99.90
4002;DHT22;2015;48.670;9.060;2022-08-19T10:56:28;20.40;99.90
4002;DHT22;2015;48.670;9.060;2022-08-19T10:59:23;20.50;99.90
4002;DHT22;2015;48.670;9.060;2022-08-19T11:02:00;20.60;99.90
4002;DHT22;2015;48.670;9.060;2022-08-19T11:04:32;20.80;99.90
4002;DHT22;2015;48.670;9.060;2022-08-19T11:07:07;20.80;99.90
4002;DHT22;2015;48.670;9.060;2022-08-19T11:09:41;20.80;99.90
4002;DHT22;2015;48.670;9.060;2022-08-19T11:12:13;20.90;99.90
4002;DHT22;2015;48.670;9.060;2022-08-19T11:14:46;21.00;99.90
4002;DHT22;2015;48.670;9.060;2022-08-19T11:17:21;21.00;99.90
4002;DHT22;2015;48.670;9.060;2022-08-19T11:19:54;21.00;99.90
4002;DHT22;2015;48.670;9.060;2022-08-19T11:22:26;21.10;99.90
4002;DHT22;2015;48.670;9.060;2022-08-19T11:25:10;21.10;99.90
4002;DHT22;2015;48.670;9.060;2022-08-19T11:27:43;21.10;99.90
4002;DHT22;2015;48.670;9.060;2022-08-19T11:30:16;21.10;99.90
4002;DHT22;2015;48.670;9.060;2022-08-19T11:32:47;21.00;99.90
4002;DHT22;2015;48.670;9.060;2022-08-19T11:35:20;21.00;99.90
4002;DHT22;2015;48.670;9.060;2022-08-19T11:37:52;21.00;99.90
4002;DHT22;2015;48.670;9.060;2022-08-19T11:40:25;21.00;99.90
4002;DHT22;2015;48.670;9.060;2022-08-19T11:42:57;21.00;99.90
4002;DHT22;2015;48.670;9.060;2022-08-19T11:45:29;21.00;99.90
4002;DHT22;2015;48.670;9.060;2022-08-19T11:48:01;21.00;99.90
4002;DHT22;2015;48.670;9.060;2022-08-19T11:50:33;21.10;99.90
4002;DHT22;2015;48.670;9.060;2022-08-19T11:53:05;21.10;99.90
4002;DHT22;2015;48.670;9.060;2022-08-19T11:55:40;21.20;99.90
4002;DHT22;2015;48.670;9.060;2022-08-19T11:58:16;21.20;99.90
4002;DHT22;2015;48.670;9.060;2022-08-19T12:00:50;21.30;99.90
4002;DHT22;2015;48.670;9.060;2022-08-19T12:03:23;21.40;99.90
4002;DHT22;2015;48.670;9.060;2022-08-19T12:05:54;21.50;99.90
4002;DHT22;2015;48.670;9.060;2022-08-19T12:08:26;21.60;99.90
4002;DHT22;2015;48.670;9.060;2022-08-19T12:10:58;21.60;99.90
4002;DHT22;2015;48.670;9.060;2022-08-19T12:13:32;21.70;99.90
4002;DHT22;2015;48.670;9.060;2022-08-19T12:16:16;21.90;99.90
4002;DHT22;2015;48.670;9.060;2022-08-19T12:18:49;22.10;99.90
4002;DHT22;2015;48.670;9.060;2022-08-19T12:21:26;22.10;99.90
4002;DHT22;2015;48.670;9.060;2022-08-19T12:24:01;22.10;99.90
4002;DHT22;2015;48.670;9.060;2022-08-19T12:26:33;22.10;99.90
4002;DHT22;2015;48.670;9.060;2022-08-19T12:29:23;22.20;99.90
4002;DHT22;2015;48.670;9.060;2022-08-19T12:31:59;22.30;99.90
4002;DHT22;2015;48.670;9.060;2022-08-19T12:34:35;22.30;99.90
4002;DHT22;2015;48.670;9.060;2022-08-19T12:37:09;22.30;99.90
4002;DHT22;2015;48.670;9.060;2022-08-19T12:39:41;22.20;99.90
4002;DHT22;2015;48.670;9.060;2022-08-19T12:42:14;22.10;99.90
4002;DHT22;2015;48.670;9.060;2022-08-19T12:44:46;22.10;99.90
4002;DHT22;2015;48.670;9.060;2022-08-19T12:47:19;22.10;99.90
4002;DHT22;2015;48.670;9.060;2022-08-19T12:49:50;22.10;99.90
4002;DHT22;2015;48.670;9.060;2022-08-19T12:52:26;22.20;99.90
4002;DHT22;2015;48.670;9.060;2022-08-19T12:54:59;22.20;99.90
4002;DHT22;2015;48.670;9.060;2022-08-19T12:57:31;22.20;99.90
4002;DHT22;2015;48.670;9.060;2022-08-19T13:00:12;22.20;99.90
4002;DHT22;2015;48.670;9.060;2022-08-19T13:02:47;22.20;99.90
4002;DHT22;2015;48.670;9.060;2022-08-19T13:05:23;22.10;99.90
4002;DHT22;2015;48.670;9.060;2022-08-19T13:07:57;22.10;99.90
4002;DHT22;2015;48.670;9.060;2022-08-19T13:10:33;22.10;99.90
4002;DHT22;2015;48.670;9.060;2022-08-19T13:13:08;22.10;99.90
4002;DHT22;2015;48.670;9.060;2022-08-19T13:15:41;22.10;99.90
4002;DHT22;2015;48.670;9.060;2022-08-19T13:18:14;22.00;99.90
4002;DHT22;2015;48.670;9.060;2022-08-19T13:20:46;21.80;99.90
4002;DHT22;2015;48.670;9.060;2022-08-19T13:23:23;21.70;99.90
4002;DHT22;2015;48.670;9.060;2022-08-19T13:25:56;21.60;99.90
4002;DHT22;2015;48.670;9.060;2022-08-19T13:28:29;21.50;99.90
4002;DHT22;2015;48.670;9.060;2022-08-19T13:31:22;21.50;99.90
4002;DHT22;2015;48.670;9.060;2022-08-19T13:34:14;21.40;99.90
4002;DHT22;2015;48.670;9.060;2022-08-19T13:36:47;21.20;99.90
4002;DHT22;2015;48.670;9.060;2022-08-19T13:39:19;21.20;99.90
4002;DHT22;2015;48.670;9.060;2022-08-19T13:41:54;21.10;99.90
4002;DHT22;2015;48.670;9.060;2022-08-19T13:44:27;21.10;99.90
4002;DHT22;2015;48.670;9.060;2022-08-19T13:47:03;21.00;99.90
4002;DHT22;2015;48.670;9.060;2022-08-19T13:49:38;20.90;99.90
4002;DHT22;2015;48.670;9.060;2022-08-19T13:52:10;20.90;99.90
4002;DHT22;2015;48.670;9.060;2022-08-19T13:54:42;20.90;99.90
4002;DHT22;2015;48.670;9.060;2022-08-19T13:57:14;20.90;99.90
4002;DHT22;2015;48.670;9.060;2022-08-19T13:59:46;20.80;99.90
4002;DHT22;2015;48.670;9.060;2022-08-19T14:02:18;20.60;99.90
4002;DHT22;2015;48.670;9.060;2022-08-19T14:04:50;20.70;99.90
4002;DHT22;2015;48.670;9.060;2022-08-19T14:07:22;20.50;99.90
4002;DHT22;2015;48.670;9.060;2022-08-19T14:09:55;20.50;99.90
4002;DHT22;2015;48.670;9.060;2022-08-19T14:12:26;20.60;99.90
4002;DHT22;2015;48.670;9.060;2022-08-19T14:15:00;20.50;99.90
4002;DHT22;2015;48.670;9.060;2022-08-19T14:17:32;20.60;99.90
4002;DHT22;2015;48.670;9.060;2022-08-19T14:20:09;20.50;99.90
4002;DHT22;2015;48.670;9.060;2022-08-19T14:22:48;20.30;99.90
4002;DHT22;2015;48.670;9.060;2022-08-19T14:25:24;20.30;99.90
4002;DHT22;2015;48.670;9.060;2022-08-19T14:27:57;20.40;99.90
4002;DHT22;2015;48.670;9.060;2022-08-19T14:30:32;20.40;99.90
4002;DHT22;2015;48.670;9.060;2022-08-19T14:33:06;20.60;99.90
4002;DHT22;2015;48.670;9.060;2022-08-19T14:35:38;20.70;99.90
4002;DHT22;2015;48.670;9.060;2022-08-19T14:38:16;20.70;99.90
4002;DHT22;2015;48.670;9.060;2022-08-19T14:40:48;20.60;99.90
4002;DHT22;2015;48.670;9.060;2022-08-19T14:43:20;20.60;99.90
4002;DHT22;2015;48.670;9.060;2022-08-19T14:45:53;20.60;99.90
4002;DHT22;2015;48.670;9.060;2022-08-19T14:48:25;20.60;99.90
4002;DHT22;2015;48.670;9.060;2022-08-19T14:50:59;20.60;99.90
4002;DHT22;2015;48.670;9.060;2022-08-19T14:53:31;20.70;99.90
4002;DHT22;2015;48.670;9.060;2022-08-19T14:56:13;20.80;99.90
4002;DHT22;2015;48.670;9.060;2022-08-19T14:58:45;20.90;99.90
4002;DHT22;2015;48.670;9.060;2022-08-19T15:01:18;21.20;99.90
4002;DHT22;2015;48.670;9.060;2022-08-19T15:03:52;21.30;99.90
4002;DHT22;2015;48.670;9.060;2022-08-19T15:06:26;21.30;99.90
4002;DHT22;2015;48.670;9.060;2022-08-19T15:08:58;21.40;99.90
4002;DHT22;2015;48.670;9.060;2022-08-19T15:11:35;21.40;99.90
4002;DHT22;2015;48.670;9.060;2022-08-19T15:14:07;21.20;99.90
4002;DHT22;2015;48.670;9.060;2022-08-19T15:16:38;21.20;99.90
4002;DHT22;2015;48.670;9.060;2022-08-19T15:19:13;21.20;99.90
4002;DHT22;2015;48.670;9.060;2022-08-19T15:21:45;21.30;99.90
4002;DHT22;2015;48.670;9.060;2022-08-19T15:24:16;21.50;99.90
4002;DHT22;2015;48.670;9.060;2022-08-19T15:26:49;21.50;99.90
4002;DHT22;2015;48.670;9.060;2022-08-19T15:29:20;21.60;99.90
4002;DHT22;2015;48.670;9.060;2022-08-19T15:31:54;21.70;99.90
4002;DHT22;2015;48.670;9.060;2022-08-19T15:34:29;21.60;99.90
4002;DHT22;2015;48.670;9.060;2022-08-19T15:37:02;21.70;99.90
4002;DHT22;2015;48.670;9.060;2022-08-19T15:39:36;21.80;99.90
4002;DHT22;2015;48.670;9.060;2022-08-19T15:42:08;22.00;99.90
4002;DHT22;2015;48.670;9.060;2022-08-19T15:44:40;22.10;99.90
4002;DHT22;2015;48.670;9.060;2022-08-19T15:47:12;22.20;99.90
4002;DHT22;2015;48.670;9.060;2022-08-19T15:49:44;22.20;99.90
4002;DHT22;2015;48.670;9.060;2022-08-19T15:52:19;22.20;99.90
4002;DHT22;2015;48.670;9.060;2022-08-19T15:54:51;22.30;99.90
4002;DHT22;2015;48.670;9.060;2022-08-19T15:57:23;22.50;99.90
4002;DHT22;2015;48.670;9.060;2022-08-19T15:59:57;22.50;99.90
4002;DHT22;2015;48.670;9.060;2022-08-19T16:02:48;22.60;99.90
4002;DHT22;2015;48.670;9.060;2022-08-19T16:05:38;22.70;99.90
4002;DHT22;2015;48.670;9.060;2022-08-19T16:08:29;22.90;99.90
4002;DHT22;2015;48.670;9.060;2022-08-19T16:11:00;23.00;99.90
4002;DHT22;2015;48.670;9.060;2022-08-19T16:13:32;23.10;99.90
4002;DHT22;2015;48.670;9.060;2022-08-19T16:16:05;23.20;99.90
4002;DHT22;2015;48.670;9.060;2022-08-19T16:18:37;23.20;99.90
4002;DHT22;2015;48.670;9.060;2022-08-19T16:21:09;23.20;99.90
4002;DHT22;2015;48.670;9.060;2022-08-19T16:23:41;23.20;99.90
4002;DHT22;2015;48.670;9.060;2022-08-19T16:26:15;23.20;99.90
4002;DHT22;2015;48.670;9.060;2022-08-19T16:28:47;23.20;99.90
4002;DHT22;2015;48.670;9.060;2022-08-19T16:31:19;23.20;99.90
4002;DHT22;2015;48.670;9.060;2022-08-19T16:33:51;23.20;99.90
4002;DHT22;2015;48.670;9.060;2022-08-19T16:36:23;23.20;99.90
4002;DHT22;2015;48.670;9.060;2022-08-19T16:38:55;23.30;99.90
4002;DHT22;2015;48.670;9.060;2022-08-19T16:41:28;23.30;99.90
4002;DHT22;2015;48.670;9.060;2022-08-19T16:43:59;23.20;99.90
4002;DHT22;2015;48.670;9.060;2022-08-19T16:46:31;23.20;99.90
4002;DHT22;2015;48.670;9.060;2022-08-19T16:49:04;23.20;99.90
4002;DHT22;2015;48.670;9.060;2022-08-19T16:51:37;23.30;99.90
4002;DHT22;2015;48.670;9.060;2022-08-19T16:54:09;23.20;99.90
4002;DHT22;2015;48.670;9.060;2022-08-19T16:56:41;23.10;99.90
4002;DHT22;2015;48.670;9.060;2022-08-19T16:59:13;23.10;99.90
4002;DHT22;2015;48.670;9.060;2022-08-19T17:01:45;23.10;99.90
4002;DHT22;2015;48.670;9.060;2022-08-19T17:04:17;23.00;99.90
4002;DHT22;2015;48.670;9.060;2022-08-19T17:06:49;22.90;99.90
4002;DHT22;2015;48.670;9.060;2022-08-19T17:09:21;22.80;99.90